sensor_id;sensor_type;location;lat;lon;timestamp;temperature;humidity
61392;DHT22;47261;52.892;5.738;2023-05-20T00:00:07;11.40;97.80
61392;DHT22;47261;52.892;5.738;2023-05-20T00:02:34;11.30;97.80
61392;DHT22;47261;52.892;5.738;2023-05-20T00:05:00;11.30;97.80
61392;DHT22;47261;52.892;5.738;2023-05-20T00:07:25;11.20;97.80
61392;DHT22;47261;52.892;5.738;2023-05-20T00:09:51;11.20;97.80
61392;DHT22;47261;52.892;5.738;2023-05-20T00:12:17;11.20;97.80
61392;DHT22;47261;52.892;5.738;2023-05-20T00:14:42;11.20;97.90
61392;DHT22;47261;52.892;5.738;2023-05-20T00:17:08;11.20;97.90
61392;DHT22;47261;52.892;5.738;2023-05-20T00:19:34;11.20;97.90
61392;DHT22;47261;52.892;5.738;2023-05-20T00:21:59;11.10;97.80
61392;DHT22;47261;52.892;5.738;2023-05-20T00:24:26;11.10;97.80
61392;DHT22;47261;52.892;5.738;2023-05-20T00:26:52;11.00;97.90
61392;DHT22;47261;52.892;5.738;2023-05-20T00:29:20;11.10;98.00
61392;DHT22;47261;52.892;5.738;2023-05-20T00:31:46;11.00;98.00
61392;DHT22;47261;52.892;5.738;2023-05-20T00:34:11;11.00;98.00
61392;DHT22;47261;52.892;5.738;2023-05-20T00:36:37;11.00;98.00
61392;DHT22;47261;52.892;5.738;2023-05-20T00:39:03;11.00;98.10
61392;DHT22;47261;52.892;5.738;2023-05-20T00:41:28;11.00;98.10
61392;DHT22;47261;52.892;5.738;2023-05-20T00:43:54;10.90;98.00
61392;DHT22;47261;52.892;5.738;2023-05-20T00:46:23;10.90;98.00
61392;DHT22;47261;52.892;5.738;2023-05-20T00:48:49;10.90;98.00
61392;DHT22;47261;52.892;5.738;2023-05-20T00:51:15;10.90;98.00
61392;DHT22;47261;52.892;5.738;2023-05-20T00:53:41;10.90;98.00
61392;DHT22;47261;52.892;5.738;2023-05-20T00:56:08;10.80;98.00
61392;DHT22;47261;52.892;5.738;2023-05-20T00:58:34;10.80;98.10
61392;DHT22;47261;52.892;5.738;2023-05-20T01:01:01;10.80;98.10
61392;DHT22;47261;52.892;5.738;2023-05-20T01:03:28;10.80;98.10
61392;DHT22;47261;52.892;5.738;2023-05-20T01:05:53;10.80;98.20
61392;DHT22;47261;52.892;5.738;2023-05-20T01:08:20;10.80;98.20
61392;DHT22;47261;52.892;5.738;2023-05-20T01:10:50;10.80;98.20
61392;DHT22;47261;52.892;5.738;2023-05-20T01:13:20;10.80;98.30
61392;DHT22;47261;52.892;5.738;2023-05-20T01:15:49;10.70;98.20
61392;DHT22;47261;52.892;5.738;2023-05-20T01:18:17;10.70;98.30
61392;DHT22;47261;52.892;5.738;2023-05-20T01:20:49;10.70;98.40
61392;DHT22;47261;52.892;5.738;2023-05-20T01:23:15;10.80;98.50
61392;DHT22;47261;52.892;5.738;2023-05-20T01:25:41;10.80;98.50
61392;DHT22;47261;52.892;5.738;2023-05-20T01:28:07;10.80;98.50
61392;DHT22;47261;52.892;5.738;2023-05-20T01:30:38;10.80;98.50
61392;DHT22;47261;52.892;5.738;2023-05-20T01:33:09;10.80;98.50
61392;DHT22;47261;52.892;5.738;2023-05-20T01:35:36;10.80;98.50
61392;DHT22;47261;52.892;5.738;2023-05-20T01:38:04;10.80;98.50
61392;DHT22;47261;52.892;5.738;2023-05-20T01:40:32;10.70;98.50
61392;DHT22;47261;52.892;5.738;2023-05-20T01:42:59;10.70;98.50
61392;DHT22;47261;52.892;5.738;2023-05-20T01:45:25;10.70;98.40
61392;DHT22;47261;52.892;5.738;2023-05-20T01:47:51;10.70;98.40
61392;DHT22;47261;52.892;5.738;2023-05-20T01:50:17;10.60;98.40
61392;DHT22;47261;52.892;5.738;2023-05-20T01:52:42;10.60;98.50
61392;DHT22;47261;52.892;5.738;2023-05-20T01:55:08;10.60;98.50
61392;DHT22;47261;52.892;5.738;2023-05-20T01:57:34;10.60;98.60
61392;DHT22;47261;52.892;5.738;2023-05-20T02:00:00;10.60;98.70
61392;DHT22;47261;52.892;5.738;2023-05-20T02:02:26;10.60;98.80
61392;DHT22;47261;52.892;5.738;2023-05-20T02:04:52;10.60;98.80
61392;DHT22;47261;52.892;5.738;2023-05-20T02:07:18;10.60;98.80
61392;DHT22;47261;52.892;5.738;2023-05-20T02:09:44;10.60;98.80
61392;DHT22;47261;52.892;5.738;2023-05-20T02:12:10;10.60;98.80
61392;DHT22;47261;52.892;5.738;2023-05-20T02:14:46;10.60;98.70
61392;DHT22;47261;52.892;5.738;2023-05-20T02:17:12;10.60;98.70
61392;DHT22;47261;52.892;5.738;2023-05-20T02:19:41;10.60;98.70
61392;DHT22;47261;52.892;5.738;2023-05-20T02:22:07;10.50;98.70
61392;DHT22;47261;52.892;5.738;2023-05-20T02:24:33;10.50;98.80
61392;DHT22;47261;52.892;5.738;2023-05-20T02:26:59;10.50;99.20
61392;DHT22;47261;52.892;5.738;2023-05-20T02:29:24;10.50;99.00
61392;DHT22;47261;52.892;5.738;2023-05-20T02:31:50;10.50;99.00
61392;DHT22;47261;52.892;5.738;2023-05-20T02:34:17;10.50;99.10
61392;DHT22;47261;52.892;5.738;2023-05-20T02:36:42;10.50;99.10
61392;DHT22;47261;52.892;5.738;2023-05-20T02:39:08;10.50;99.00
61392;DHT22;47261;52.892;5.738;2023-05-20T02:41:34;10.50;99.00
61392;DHT22;47261;52.892;5.738;2023-05-20T02:44:00;10.40;99.00
61392;DHT22;47261;52.892;5.738;2023-05-20T02:46:26;10.40;99.00
61392;DHT22;47261;52.892;5.738;2023-05-20T02:48:51;10.40;98.90
61392;DHT22;47261;52.892;5.738;2023-05-20T02:51:17;10.40;98.90
61392;DHT22;47261;52.892;5.738;2023-05-20T02:53:42;10.40;99.00
61392;DHT22;47261;52.892;5.738;2023-05-20T02:56:08;10.30;99.00
61392;DHT22;47261;52.892;5.738;2023-05-20T02:58:34;10.30;99.00
61392;DHT22;47261;52.892;5.738;2023-05-20T03:01:00;10.30;99.10
61392;DHT22;47261;52.892;5.738;2023-05-20T03:03:26;10.30;99.20
61392;DHT22;47261;52.892;5.738;2023-05-20T03:05:52;10.30;99.40
61392;DHT22;47261;52.892;5.738;2023-05-20T03:08:19;10.30;99.20
61392;DHT22;47261;52.892;5.738;2023-05-20T03:10:45;10.30;99.20
61392;DHT22;47261;52.892;5.738;2023-05-20T03:13:11;10.20;99.20
61392;DHT22;47261;52.892;5.738;2023-05-20T03:15:37;10.20;99.20
61392;DHT22;47261;52.892;5.738;2023-05-20T03:18:04;10.30;99.30
61392;DHT22;47261;52.892;5.738;2023-05-20T03:20:30;10.30;99.40
61392;DHT22;47261;52.892;5.738;2023-05-20T03:23:01;10.30;99.40
61392;DHT22;47261;52.892;5.738;2023-05-20T03:25:27;10.30;99.70
61392;DHT22;47261;52.892;5.738;2023-05-20T03:27:53;10.30;99.50
61392;DHT22;47261;52.892;5.738;2023-05-20T03:30:19;10.30;99.60
61392;DHT22;47261;52.892;5.738;2023-05-20T03:32:45;10.30;99.80
61392;DHT22;47261;52.892;5.738;2023-05-20T03:35:11;10.30;99.60
61392;DHT22;47261;52.892;5.738;2023-05-20T03:37:36;10.30;99.60
61392;DHT22;47261;52.892;5.738;2023-05-20T03:40:02;10.30;99.60
61392;DHT22;47261;52.892;5.738;2023-05-20T03:42:32;10.30;99.50
61392;DHT22;47261;52.892;5.738;2023-05-20T03:44:59;10.30;99.50
61392;DHT22;47261;52.892;5.738;2023-05-20T03:47:25;10.30;99.50
61392;DHT22;47261;52.892;5.738;2023-05-20T03:49:51;10.30;99.50
61392;DHT22;47261;52.892;5.738;2023-05-20T03:52:17;10.30;99.60
61392;DHT22;47261;52.892;5.738;2023-05-20T03:54:43;10.20;99.60
61392;DHT22;47261;52.892;5.738;2023-05-20T03:57:08;10.20;99.60
61392;DHT22;47261;52.892;5.738;2023-05-20T03:59:37;10.30;99.60
61392;DHT22;47261;52.892;5.738;2023-05-20T04:02:03;10.30;99.60
61392;DHT22;47261;52.892;5.738;2023-05-20T04:04:29;10.20;99.60
61392;DHT22;47261;52.892;5.738;2023-05-20T04:06:55;10.20;99.50
61392;DHT22;47261;52.892;5.738;2023-05-20T04:09:21;10.20;99.60
61392;DHT22;47261;52.892;5.738;2023-05-20T04:11:47;10.20;99.60
61392;DHT22;47261;52.892;5.738;2023-05-20T04:14:13;10.20;99.60
61392;DHT22;47261;52.892;5.738;2023-05-20T04:16:40;10.20;99.60
61392;DHT22;47261;52.892;5.738;2023-05-20T04:19:05;10.20;99.60
61392;DHT22;47261;52.892;5.738;2023-05-20T04:21:31;10.20;99.70
61392;DHT22;47261;52.892;5.738;2023-05-20T04:23:57;10.20;99.70
61392;DHT22;47261;52.892;5.738;2023-05-20T04:26:23;10.20;99.70
61392;DHT22;47261;52.892;5.738;2023-05-20T04:28:48;10.20;99.70
61392;DHT22;47261;52.892;5.738;2023-05-20T04:31:14;10.30;99.80
61392;DHT22;47261;52.892;5.738;2023-05-20T04:33:40;10.30;99.80
61392;DHT22;47261;52.892;5.738;2023-05-20T04:36:08;10.40;99.90
61392;DHT22;47261;52.892;5.738;2023-05-20T04:38:34;10.40;99.90
61392;DHT22;47261;52.892;5.738;2023-05-20T04:41:01;10.50;99.90
61392;DHT22;47261;52.892;5.738;2023-05-20T04:43:27;10.60;99.90
61392;DHT22;47261;52.892;5.738;2023-05-20T04:45:55;10.60;99.90
61392;DHT22;47261;52.892;5.738;2023-05-20T04:48:21;10.70;99.90
61392;DHT22;47261;52.892;5.738;2023-05-20T04:50:48;10.80;99.90
61392;DHT22;47261;52.892;5.738;2023-05-20T04:53:14;10.90;99.90
61392;DHT22;47261;52.892;5.738;2023-05-20T04:55:40;11.00;99.90
61392;DHT22;47261;52.892;5.738;2023-05-20T04:58:08;11.10;99.90
61392;DHT22;47261;52.892;5.738;2023-05-20T05:00:43;11.20;99.90
61392;DHT22;47261;52.892;5.738;2023-05-20T05:03:09;11.20;99.90
61392;DHT22;47261;52.892;5.738;2023-05-20T05:05:37;11.30;99.70
61392;DHT22;47261;52.892;5.738;2023-05-20T05:08:04;11.30;99.60
61392;DHT22;47261;52.892;5.738;2023-05-20T05:10:30;11.40;99.60
61392;DHT22;47261;52.892;5.738;2023-05-20T05:12:56;11.40;99.50
61392;DHT22;47261;52.892;5.738;2023-05-20T05:15:22;11.40;99.40
61392;DHT22;47261;52.892;5.738;2023-05-20T05:17:48;11.50;99.40
61392;DHT22;47261;52.892;5.738;2023-05-20T05:20:13;11.50;99.30
61392;DHT22;47261;52.892;5.738;2023-05-20T05:22:39;11.60;99.30
61392;DHT22;47261;52.892;5.738;2023-05-20T05:25:07;11.60;99.20
61392;DHT22;47261;52.892;5.738;2023-05-20T05:27:32;11.70;99.20
61392;DHT22;47261;52.892;5.738;2023-05-20T05:29:59;11.80;99.20
61392;DHT22;47261;52.892;5.738;2023-05-20T05:32:25;11.90;99.10
61392;DHT22;47261;52.892;5.738;2023-05-20T05:34:50;12.00;99.10
61392;DHT22;47261;52.892;5.738;2023-05-20T05:37:16;12.10;99.00
61392;DHT22;47261;52.892;5.738;2023-05-20T05:39:41;12.30;98.90
61392;DHT22;47261;52.892;5.738;2023-05-20T05:42:07;12.30;98.70
61392;DHT22;47261;52.892;5.738;2023-05-20T05:44:33;12.40;98.50
61392;DHT22;47261;52.892;5.738;2023-05-20T05:46:58;12.50;98.40
61392;DHT22;47261;52.892;5.738;2023-05-20T05:49:24;12.50;98.30
61392;DHT22;47261;52.892;5.738;2023-05-20T05:51:50;12.50;98.20
61392;DHT22;47261;52.892;5.738;2023-05-20T05:54:16;12.60;98.20
61392;DHT22;47261;52.892;5.738;2023-05-20T05:56:42;12.60;98.10
61392;DHT22;47261;52.892;5.738;2023-05-20T05:59:07;12.70;98.00
61392;DHT22;47261;52.892;5.738;2023-05-20T06:01:33;12.80;97.90
61392;DHT22;47261;52.892;5.738;2023-05-20T06:03:59;12.80;97.80
61392;DHT22;47261;52.892;5.738;2023-05-20T06:06:25;12.90;97.70
61392;DHT22;47261;52.892;5.738;2023-05-20T06:08:51;13.00;97.50
61392;DHT22;47261;52.892;5.738;2023-05-20T06:11:16;13.00;97.50
61392;DHT22;47261;52.892;5.738;2023-05-20T06:13:42;13.10;97.40
61392;DHT22;47261;52.892;5.738;2023-05-20T06:16:07;13.10;97.30
61392;DHT22;47261;52.892;5.738;2023-05-20T06:18:33;13.20;97.20
61392;DHT22;47261;52.892;5.738;2023-05-20T06:20:59;13.30;97.00
61392;DHT22;47261;52.892;5.738;2023-05-20T06:23:25;13.30;96.90
61392;DHT22;47261;52.892;5.738;2023-05-20T06:25:51;13.40;96.70
61392;DHT22;47261;52.892;5.738;2023-05-20T06:28:17;13.50;96.60
61392;DHT22;47261;52.892;5.738;2023-05-20T06:30:42;13.60;96.50
61392;DHT22;47261;52.892;5.738;2023-05-20T06:33:08;13.80;96.40
61392;DHT22;47261;52.892;5.738;2023-05-20T06:35:34;14.20;96.30
61392;DHT22;47261;52.892;5.738;2023-05-20T06:38:00;14.60;96.00
61392;DHT22;47261;52.892;5.738;2023-05-20T06:40:26;15.10;95.60
61392;DHT22;47261;52.892;5.738;2023-05-20T06:42:52;15.60;95.00
61392;DHT22;47261;52.892;5.738;2023-05-20T06:45:18;15.90;94.30
61392;DHT22;47261;52.892;5.738;2023-05-20T06:47:44;16.10;93.60
61392;DHT22;47261;52.892;5.738;2023-05-20T06:50:10;16.10;93.00
61392;DHT22;47261;52.892;5.738;2023-05-20T06:52:36;15.90;92.60
61392;DHT22;47261;52.892;5.738;2023-05-20T06:55:03;15.70;92.50
61392;DHT22;47261;52.892;5.738;2023-05-20T06:57:29;15.60;92.60
61392;DHT22;47261;52.892;5.738;2023-05-20T06:59:54;15.40;92.70
61392;DHT22;47261;52.892;5.738;2023-05-20T07:02:21;15.40;92.70
61392;DHT22;47261;52.892;5.738;2023-05-20T07:04:47;15.30;92.60
61392;DHT22;47261;52.892;5.738;2023-05-20T07:07:13;15.40;92.60
61392;DHT22;47261;52.892;5.738;2023-05-20T07:09:39;15.50;92.60
61392;DHT22;47261;52.892;5.738;2023-05-20T07:12:05;15.70;92.50
61392;DHT22;47261;52.892;5.738;2023-05-20T07:14:31;15.90;92.20
61392;DHT22;47261;52.892;5.738;2023-05-20T07:16:56;16.10;91.80
61392;DHT22;47261;52.892;5.738;2023-05-20T07:19:22;16.20;91.60
61392;DHT22;47261;52.892;5.738;2023-05-20T07:21:48;16.30;91.30
61392;DHT22;47261;52.892;5.738;2023-05-20T07:24:17;16.40;91.10
61392;DHT22;47261;52.892;5.738;2023-05-20T07:26:43;16.50;91.00
61392;DHT22;47261;52.892;5.738;2023-05-20T07:29:08;16.60;90.90
61392;DHT22;47261;52.892;5.738;2023-05-20T07:31:34;16.70;90.70
61392;DHT22;47261;52.892;5.738;2023-05-20T07:34:00;16.80;90.40
61392;DHT22;47261;52.892;5.738;2023-05-20T07:36:27;16.90;90.20
61392;DHT22;47261;52.892;5.738;2023-05-20T07:38:53;17.00;89.60
61392;DHT22;47261;52.892;5.738;2023-05-20T07:41:18;17.10;88.90
61392;DHT22;47261;52.892;5.738;2023-05-20T07:43:44;17.20;88.30
61392;DHT22;47261;52.892;5.738;2023-05-20T07:46:10;17.30;88.10
61392;DHT22;47261;52.892;5.738;2023-05-20T07:48:36;17.30;87.80
61392;DHT22;47261;52.892;5.738;2023-05-20T07:51:01;17.40;87.70
61392;DHT22;47261;52.892;5.738;2023-05-20T07:53:27;17.50;87.50
61392;DHT22;47261;52.892;5.738;2023-05-20T07:55:53;17.60;87.50
61392;DHT22;47261;52.892;5.738;2023-05-20T07:58:19;17.80;87.30
61392;DHT22;47261;52.892;5.738;2023-05-20T08:00:45;17.90;86.80
61392;DHT22;47261;52.892;5.738;2023-05-20T08:03:10;18.00;85.60
61392;DHT22;47261;52.892;5.738;2023-05-20T08:05:36;18.10;85.30
61392;DHT22;47261;52.892;5.738;2023-05-20T08:08:03;18.20;84.80
61392;DHT22;47261;52.892;5.738;2023-05-20T08:10:29;18.20;84.00
61392;DHT22;47261;52.892;5.738;2023-05-20T08:12:55;18.20;83.50
61392;DHT22;47261;52.892;5.738;2023-05-20T08:15:21;18.20;83.60
61392;DHT22;47261;52.892;5.738;2023-05-20T08:17:46;18.30;83.70
61392;DHT22;47261;52.892;5.738;2023-05-20T08:20:12;18.40;83.70
61392;DHT22;47261;52.892;5.738;2023-05-20T08:22:38;18.50;83.30
61392;DHT22;47261;52.892;5.738;2023-05-20T08:25:06;18.50;82.40
61392;DHT22;47261;52.892;5.738;2023-05-20T08:27:33;18.50;81.70
61392;DHT22;47261;52.892;5.738;2023-05-20T08:29:58;18.60;80.80
61392;DHT22;47261;52.892;5.738;2023-05-20T08:32:24;18.60;80.50
61392;DHT22;47261;52.892;5.738;2023-05-20T08:34:50;18.70;80.30
61392;DHT22;47261;52.892;5.738;2023-05-20T08:37:16;18.70;80.00
61392;DHT22;47261;52.892;5.738;2023-05-20T08:39:41;18.80;79.80
61392;DHT22;47261;52.892;5.738;2023-05-20T08:42:08;18.90;79.10
61392;DHT22;47261;52.892;5.738;2023-05-20T08:44:36;19.00;78.30
61392;DHT22;47261;52.892;5.738;2023-05-20T08:47:02;19.10;77.60
61392;DHT22;47261;52.892;5.738;2023-05-20T08:49:30;19.20;77.40
61392;DHT22;47261;52.892;5.738;2023-05-20T08:51:56;19.30;77.00
61392;DHT22;47261;52.892;5.738;2023-05-20T08:54:24;19.40;76.60
61392;DHT22;47261;52.892;5.738;2023-05-20T08:56:51;19.50;76.00
61392;DHT22;47261;52.892;5.738;2023-05-20T08:59:18;19.50;75.70
61392;DHT22;47261;52.892;5.738;2023-05-20T09:01:44;19.60;75.00
61392;DHT22;47261;52.892;5.738;2023-05-20T09:04:10;19.70;73.10
61392;DHT22;47261;52.892;5.738;2023-05-20T09:06:43;19.70;73.40
61392;DHT22;47261;52.892;5.738;2023-05-20T09:09:12;19.80;72.90
61392;DHT22;47261;52.892;5.738;2023-05-20T09:11:39;19.90;72.30
61392;DHT22;47261;52.892;5.738;2023-05-20T09:14:06;19.90;72.00
61392;DHT22;47261;52.892;5.738;2023-05-20T09:16:32;20.00;71.50
61392;DHT22;47261;52.892;5.738;2023-05-20T09:18:57;20.20;71.30
61392;DHT22;47261;52.892;5.738;2023-05-20T09:21:27;20.40;70.80
61392;DHT22;47261;52.892;5.738;2023-05-20T09:23:53;20.50;70.10
61392;DHT22;47261;52.892;5.738;2023-05-20T09:26:22;20.60;69.30
61392;DHT22;47261;52.892;5.738;2023-05-20T09:28:49;20.80;68.70
61392;DHT22;47261;52.892;5.738;2023-05-20T09:31:15;21.00;68.30
61392;DHT22;47261;52.892;5.738;2023-05-20T09:33:41;21.20;67.70
61392;DHT22;47261;52.892;5.738;2023-05-20T09:36:08;21.40;67.00
61392;DHT22;47261;52.892;5.738;2023-05-20T09:38:36;21.60;66.20
61392;DHT22;47261;52.892;5.738;2023-05-20T09:41:06;21.80;65.90
61392;DHT22;47261;52.892;5.738;2023-05-20T09:43:34;22.00;65.30
61392;DHT22;47261;52.892;5.738;2023-05-20T09:45:59;22.00;64.50
61392;DHT22;47261;52.892;5.738;2023-05-20T09:48:26;22.10;64.10
61392;DHT22;47261;52.892;5.738;2023-05-20T09:50:53;22.20;64.60
61392;DHT22;47261;52.892;5.738;2023-05-20T09:53:21;22.30;64.10
61392;DHT22;47261;52.892;5.738;2023-05-20T09:55:49;22.40;62.70
61392;DHT22;47261;52.892;5.738;2023-05-20T09:58:16;22.30;61.90
61392;DHT22;47261;52.892;5.738;2023-05-20T10:00:44;22.40;61.80
61392;DHT22;47261;52.892;5.738;2023-05-20T10:03:09;22.50;63.10
61392;DHT22;47261;52.892;5.738;2023-05-20T10:05:40;22.60;62.40
61392;DHT22;47261;52.892;5.738;2023-05-20T10:08:34;22.80;61.90
61392;DHT22;47261;52.892;5.738;2023-05-20T10:16:46;23.20;60.40
61392;DHT22;47261;52.892;5.738;2023-05-20T10:19:28;23.10;57.70
61392;DHT22;47261;52.892;5.738;2023-05-20T10:22:02;23.00;58.70
61392;DHT22;47261;52.892;5.738;2023-05-20T10:24:33;22.80;58.50
61392;DHT22;47261;52.892;5.738;2023-05-20T10:27:01;22.70;58.10
61392;DHT22;47261;52.892;5.738;2023-05-20T10:29:27;22.50;59.00
61392;DHT22;47261;52.892;5.738;2023-05-20T10:31:54;22.70;59.40
61392;DHT22;47261;52.892;5.738;2023-05-20T10:34:21;23.00;58.80
61392;DHT22;47261;52.892;5.738;2023-05-20T10:39:28;23.10;56.70
61392;DHT22;47261;52.892;5.738;2023-05-20T10:42:07;23.00;56.80
61392;DHT22;47261;52.892;5.738;2023-05-20T10:44:43;22.90;56.10
61392;DHT22;47261;52.892;5.738;2023-05-20T10:47:09;22.80;56.30
61392;DHT22;47261;52.892;5.738;2023-05-20T10:49:35;22.80;56.60
61392;DHT22;47261;52.892;5.738;2023-05-20T10:52:01;22.80;56.60
61392;DHT22;47261;52.892;5.738;2023-05-20T10:54:27;22.80;56.90
61392;DHT22;47261;52.892;5.738;2023-05-20T10:56:54;22.80;55.80
61392;DHT22;47261;52.892;5.738;2023-05-20T10:59:20;22.40;55.80
61392;DHT22;47261;52.892;5.738;2023-05-20T11:01:46;22.10;56.80
61392;DHT22;47261;52.892;5.738;2023-05-20T11:04:14;22.10;57.80
61392;DHT22;47261;52.892;5.738;2023-05-20T11:06:49;22.20;57.50
61392;DHT22;47261;52.892;5.738;2023-05-20T11:09:15;22.30;57.50
61392;DHT22;47261;52.892;5.738;2023-05-20T11:11:41;22.50;57.20
61392;DHT22;47261;52.892;5.738;2023-05-20T11:14:08;22.80;57.20
61392;DHT22;47261;52.892;5.738;2023-05-20T11:16:38;22.90;56.70
61392;DHT22;47261;52.892;5.738;2023-05-20T11:19:05;22.80;55.40
61392;DHT22;47261;52.892;5.738;2023-05-20T11:21:31;22.50;55.80
61392;DHT22;47261;52.892;5.738;2023-05-20T11:23:57;22.40;56.20
61392;DHT22;47261;52.892;5.738;2023-05-20T11:26:23;22.40;56.30
61392;DHT22;47261;52.892;5.738;2023-05-20T11:28:48;22.50;56.30
61392;DHT22;47261;52.892;5.738;2023-05-20T11:31:14;22.50;55.30
61392;DHT22;47261;52.892;5.738;2023-05-20T11:33:43;22.60;55.60
61392;DHT22;47261;52.892;5.738;2023-05-20T11:36:09;22.80;55.80
61392;DHT22;47261;52.892;5.738;2023-05-20T11:38:35;23.00;55.50
61392;DHT22;47261;52.892;5.738;2023-05-20T11:41:01;23.30;55.30
61392;DHT22;47261;52.892;5.738;2023-05-20T11:43:26;23.40;54.00
61392;DHT22;47261;52.892;5.738;2023-05-20T11:45:54;23.50;53.20
61392;DHT22;47261;52.892;5.738;2023-05-20T11:48:20;23.50;53.20
61392;DHT22;47261;52.892;5.738;2023-05-20T11:50:46;23.30;52.20
61392;DHT22;47261;52.892;5.738;2023-05-20T11:53:16;23.00;52.50
61392;DHT22;47261;52.892;5.738;2023-05-20T11:55:50;22.90;53.50
61392;DHT22;47261;52.892;5.738;2023-05-20T11:58:24;22.70;53.60
61392;DHT22;47261;52.892;5.738;2023-05-20T12:00:50;22.40;54.50
61392;DHT22;47261;52.892;5.738;2023-05-20T12:03:17;22.40;55.30
61392;DHT22;47261;52.892;5.738;2023-05-20T12:05:43;22.50;54.60
61392;DHT22;47261;52.892;5.738;2023-05-20T12:08:09;22.50;53.50
61392;DHT22;47261;52.892;5.738;2023-05-20T12:10:35;22.50;53.70
61392;DHT22;47261;52.892;5.738;2023-05-20T12:13:04;22.60;54.40
61392;DHT22;47261;52.892;5.738;2023-05-20T12:15:36;22.70;54.20
61392;DHT22;47261;52.892;5.738;2023-05-20T12:18:02;22.80;53.60
61392;DHT22;47261;52.892;5.738;2023-05-20T12:20:28;22.80;53.90
61392;DHT22;47261;52.892;5.738;2023-05-20T12:22:55;22.90;54.10
61392;DHT22;47261;52.892;5.738;2023-05-20T12:25:21;22.80;53.90
61392;DHT22;47261;52.892;5.738;2023-05-20T12:27:48;22.70;53.80
61392;DHT22;47261;52.892;5.738;2023-05-20T12:30:17;22.50;54.00
61392;DHT22;47261;52.892;5.738;2023-05-20T12:32:43;22.40;54.50
61392;DHT22;47261;52.892;5.738;2023-05-20T12:35:10;22.50;54.40
61392;DHT22;47261;52.892;5.738;2023-05-20T12:37:37;22.50;53.80
61392;DHT22;47261;52.892;5.738;2023-05-20T12:40:03;22.50;54.00
61392;DHT22;47261;52.892;5.738;2023-05-20T12:42:36;22.30;54.60
61392;DHT22;47261;52.892;5.738;2023-05-20T12:45:03;22.10;55.20
61392;DHT22;47261;52.892;5.738;2023-05-20T12:47:30;22.00;55.60
61392;DHT22;47261;52.892;5.738;2023-05-20T12:49:55;21.80;55.30
61392;DHT22;47261;52.892;5.738;2023-05-20T12:52:21;21.80;56.00
61392;DHT22;47261;52.892;5.738;2023-05-20T12:54:47;21.90;56.60
61392;DHT22;47261;52.892;5.738;2023-05-20T12:57:12;22.10;56.20
61392;DHT22;47261;52.892;5.738;2023-05-20T12:59:38;22.30;56.80
61392;DHT22;47261;52.892;5.738;2023-05-20T13:02:04;22.40;58.30
61392;DHT22;47261;52.892;5.738;2023-05-20T13:04:29;22.50;58.60
61392;DHT22;47261;52.892;5.738;2023-05-20T13:06:56;22.50;59.00
61392;DHT22;47261;52.892;5.738;2023-05-20T13:09:22;22.50;59.50
61392;DHT22;47261;52.892;5.738;2023-05-20T13:11:47;22.40;59.80
61392;DHT22;47261;52.892;5.738;2023-05-20T13:14:13;22.40;60.00
61392;DHT22;47261;52.892;5.738;2023-05-20T13:16:39;22.30;60.10
61392;DHT22;47261;52.892;5.738;2023-05-20T13:19:05;22.20;59.90
61392;DHT22;47261;52.892;5.738;2023-05-20T13:21:30;22.00;60.10
61392;DHT22;47261;52.892;5.738;2023-05-20T13:23:56;21.90;60.50
61392;DHT22;47261;52.892;5.738;2023-05-20T13:26:22;21.80;61.00
61392;DHT22;47261;52.892;5.738;2023-05-20T13:28:48;21.70;61.20
61392;DHT22;47261;52.892;5.738;2023-05-20T13:31:14;21.60;61.50
61392;DHT22;47261;52.892;5.738;2023-05-20T13:33:39;21.60;62.00
61392;DHT22;47261;52.892;5.738;2023-05-20T13:36:05;21.60;61.70
61392;DHT22;47261;52.892;5.738;2023-05-20T13:38:31;21.60;61.70
61392;DHT22;47261;52.892;5.738;2023-05-20T13:40:56;21.50;62.10
61392;DHT22;47261;52.892;5.738;2023-05-20T13:43:24;21.60;63.20
61392;DHT22;47261;52.892;5.738;2023-05-20T13:45:51;21.60;63.50
61392;DHT22;47261;52.892;5.738;2023-05-20T13:48:17;21.70;63.20
61392;DHT22;47261;52.892;5.738;2023-05-20T13:50:42;21.70;62.70
61392;DHT22;47261;52.892;5.738;2023-05-20T13:53:08;21.50;62.70
61392;DHT22;47261;52.892;5.738;2023-05-20T13:55:38;21.40;63.40
61392;DHT22;47261;52.892;5.738;2023-05-20T13:58:04;21.30;63.70
61392;DHT22;47261;52.892;5.738;2023-05-20T14:00:34;21.40;64.40
61392;DHT22;47261;52.892;5.738;2023-05-20T14:03:00;21.50;64.10
61392;DHT22;47261;52.892;5.738;2023-05-20T14:05:29;21.40;63.30
61392;DHT22;47261;52.892;5.738;2023-05-20T14:07:55;21.30;63.40
61392;DHT22;47261;52.892;5.738;2023-05-20T14:10:20;21.10;64.00
61392;DHT22;47261;52.892;5.738;2023-05-20T14:12:46;21.10;65.10
61392;DHT22;47261;52.892;5.738;2023-05-20T14:15:12;21.20;65.50
61392;DHT22;47261;52.892;5.738;2023-05-20T14:17:38;21.40;65.40
61392;DHT22;47261;52.892;5.738;2023-05-20T14:20:04;21.60;64.80
61392;DHT22;47261;52.892;5.738;2023-05-20T14:22:30;21.80;64.00
61392;DHT22;47261;52.892;5.738;2023-05-20T14:24:57;21.80;63.50
61392;DHT22;47261;52.892;5.738;2023-05-20T14:27:22;21.70;64.80
61392;DHT22;47261;52.892;5.738;2023-05-20T14:29:48;21.70;65.00
61392;DHT22;47261;52.892;5.738;2023-05-20T14:32:13;21.60;65.30
61392;DHT22;47261;52.892;5.738;2023-05-20T14:34:39;21.40;65.20
61392;DHT22;47261;52.892;5.738;2023-05-20T14:37:05;21.20;65.10
61392;DHT22;47261;52.892;5.738;2023-05-20T14:39:34;21.10;65.30
61392;DHT22;47261;52.892;5.738;2023-05-20T14:42:00;20.90;65.90
61392;DHT22;47261;52.892;5.738;2023-05-20T14:44:27;20.80;66.70
61392;DHT22;47261;52.892;5.738;2023-05-20T14:46:53;20.80;66.90
61392;DHT22;47261;52.892;5.738;2023-05-20T14:49:19;20.70;66.80
61392;DHT22;47261;52.892;5.738;2023-05-20T14:51:45;20.80;66.80
61392;DHT22;47261;52.892;5.738;2023-05-20T14:54:10;20.80;67.20
61392;DHT22;47261;52.892;5.738;2023-05-20T14:56:36;20.80;66.30
61392;DHT22;47261;52.892;5.738;2023-05-20T14:59:02;20.70;65.90
61392;DHT22;47261;52.892;5.738;2023-05-20T15:01:28;20.70;66.30
61392;DHT22;47261;52.892;5.738;2023-05-20T15:03:53;20.60;66.80
61392;DHT22;47261;52.892;5.738;2023-05-20T15:06:19;20.50;67.40
61392;DHT22;47261;52.892;5.738;2023-05-20T15:08:45;20.50;67.70
61392;DHT22;47261;52.892;5.738;2023-05-20T15:11:11;20.40;67.90
61392;DHT22;47261;52.892;5.738;2023-05-20T15:13:36;20.40;67.80
61392;DHT22;47261;52.892;5.738;2023-05-20T15:16:02;20.40;67.80
61392;DHT22;47261;52.892;5.738;2023-05-20T15:18:28;20.50;67.80
61392;DHT22;47261;52.892;5.738;2023-05-20T15:20:54;20.50;66.40
61392;DHT22;47261;52.892;5.738;2023-05-20T15:23:19;20.40;66.70
61392;DHT22;47261;52.892;5.738;2023-05-20T15:25:45;20.40;67.30
61392;DHT22;47261;52.892;5.738;2023-05-20T15:28:12;20.40;67.90
61392;DHT22;47261;52.892;5.738;2023-05-20T15:30:38;20.40;68.30
61392;DHT22;47261;52.892;5.738;2023-05-20T15:33:04;20.30;68.30